createdAt,value
2018-04-17T00:02:10.343Z,26.25
2018-04-17T00:04:37.996Z,14.95
2018-04-17T00:07:05.609Z,20.85
2018-04-17T00:09:33.251Z,10.77
2018-04-17T00:12:00.968Z,18.37
2018-04-17T00:14:28.625Z,21.48
2018-04-17T00:16:56.255Z,25.33
2018-04-17T00:19:23.898Z,17.40
2018-04-17T00:21:52.319Z,16.30
2018-04-17T00:24:19.935Z,13.80
2018-04-17T00:26:47.579Z,19.33
2018-04-17T00:29:15.196Z,18.77
2018-04-17T00:31:42.859Z,16.10
2018-04-17T00:34:10.472Z,13.67
2018-04-17T00:36:38.848Z,19.43
2018-04-17T00:39:07.263Z,19.77
2018-04-17T00:41:34.888Z,14.17
2018-04-17T00:44:02.579Z,14.73
2018-04-17T00:46:30.195Z,14.50
2018-04-17T00:48:57.809Z,18.07
2018-04-17T00:51:25.463Z,21.20
2018-04-17T00:53:53.861Z,13.17
2018-04-17T00:56:21.508Z,11.97
2018-04-17T00:58:49.199Z,22.10
2018-04-17T01:01:16.822Z,17.13
2018-04-17T01:03:44.511Z,20.40
2018-04-17T01:06:12.159Z,19.33
2018-04-17T01:08:39.763Z,15.77
2018-04-17T01:13:27.830Z,17.30
2018-04-17T01:15:55.486Z,21.33
2018-04-17T01:18:23.855Z,17.27
2018-04-17T01:20:51.569Z,15.32
2018-04-17T01:23:19.444Z,15.87
2018-04-17T01:25:47.060Z,18.03
2018-04-17T01:28:14.706Z,18.02
2018-04-17T01:30:42.320Z,20.73
2018-04-17T01:33:09.979Z,18.75
2018-04-17T01:35:37.588Z,22.77
2018-04-17T01:38:05.219Z,23.45
2018-04-17T01:40:32.871Z,19.10
2018-04-17T01:43:00.498Z,25.17
2018-04-17T01:45:28.211Z,27.33
2018-04-17T01:47:56.843Z,27.52
2018-04-17T01:50:24.500Z,22.80
2018-04-17T01:52:52.178Z,26.52
2018-04-17T01:55:19.793Z,19.00
2018-04-17T01:57:47.685Z,22.47
2018-04-17T02:00:15.296Z,34.97
2018-04-17T02:02:43.541Z,24.63
2018-04-17T02:05:11.152Z,25.87
2018-04-17T02:07:38.764Z,17.70
2018-04-17T02:10:06.418Z,21.60
2018-04-17T02:12:34.068Z,29.47
2018-04-17T02:15:01.720Z,23.58
2018-04-17T02:17:29.328Z,23.70
2018-04-17T02:19:56.986Z,27.95
2018-04-17T02:22:24.635Z,20.93
2018-04-17T02:24:52.283Z,28.53
2018-04-17T02:27:19.906Z,20.10
2018-04-17T02:29:47.570Z,21.33
2018-04-17T02:32:15.189Z,29.40
2018-04-17T02:34:42.804Z,29.58
2018-04-17T02:37:10.455Z,31.42
2018-04-17T02:39:38.145Z,28.67
2018-04-17T02:42:05.767Z,30.17
2018-04-17T02:44:33.584Z,23.47
2018-04-17T02:47:01.247Z,30.42
2018-04-17T02:49:28.871Z,21.87
2018-04-17T02:51:56.529Z,30.42
2018-04-17T02:54:24.180Z,28.63
2018-04-17T02:56:51.836Z,25.45
2018-04-17T02:59:19.628Z,33.17
2018-04-17T03:01:47.283Z,31.37
2018-04-17T03:04:14.937Z,28.47
2018-04-17T03:06:42.547Z,28.87
2018-04-17T03:09:10.967Z,30.37
2018-04-17T03:11:38.579Z,34.53
2018-04-17T03:14:06.236Z,32.20
2018-04-17T03:16:33.891Z,37.28
2018-04-17T03:19:01.505Z,30.63
2018-04-17T03:21:29.123Z,35.15
2018-04-17T03:23:57.538Z,32.00
2018-04-17T03:26:25.197Z,31.03
2018-04-17T03:28:52.811Z,30.90
2018-04-17T03:31:20.459Z,34.87
2018-04-17T03:33:48.103Z,34.73
2018-04-17T03:36:15.754Z,29.83
2018-04-17T03:38:43.416Z,39.27
2018-04-17T03:41:11.024Z,36.70
2018-04-17T03:43:38.641Z,38.70
2018-04-17T03:46:06.288Z,41.10
2018-04-17T03:48:33.903Z,38.28
2018-04-17T03:51:03.013Z,28.90
2018-04-17T03:53:30.624Z,32.40
2018-04-17T03:55:58.450Z,33.33
2018-04-17T03:58:26.108Z,29.92
2018-04-17T04:00:53.723Z,34.87
2018-04-17T04:03:22.739Z,33.37
2018-04-17T04:05:50.358Z,37.47
2018-04-17T04:08:18.027Z,34.66
2018-04-17T04:10:45.906Z,28.70
2018-04-17T04:13:13.548Z,30.97
2018-04-17T04:15:41.207Z,27.37
2018-04-17T04:18:20.616Z,28.33
2018-04-17T04:21:00.819Z,30.33
2018-04-17T04:23:40.756Z,31.42
2018-04-17T04:26:21.694Z,35.40
2018-04-17T04:28:49.427Z,28.35
2018-04-17T04:31:17.459Z,30.07
2018-04-17T04:33:45.605Z,29.47
2018-04-17T04:36:15.557Z,24.73
2018-04-17T04:38:43.210Z,29.47
2018-04-17T04:41:12.021Z,34.60
2018-04-17T04:43:39.778Z,29.57
2018-04-17T04:46:07.440Z,37.92
2018-04-17T04:48:36.487Z,26.50
2018-04-17T04:51:06.228Z,27.23
2018-04-17T04:53:34.770Z,26.92
2018-04-17T04:56:03.025Z,29.47
2018-04-17T04:58:31.718Z,33.78
2018-04-17T05:00:59.599Z,34.38
2018-04-17T05:03:27.670Z,26.23
2018-04-17T05:05:56.484Z,26.87
2018-04-17T05:08:24.107Z,27.50
2018-04-17T05:10:53.756Z,24.10
2018-04-17T05:13:21.703Z,22.93
2018-04-17T05:15:50.621Z,22.33
2018-04-17T05:18:18.288Z,25.45
2018-04-17T05:20:45.934Z,24.80
2018-04-17T05:23:14.268Z,23.40
2018-04-17T05:25:43.575Z,18.63
2018-04-17T05:28:11.267Z,16.70
2018-04-17T05:30:38.901Z,15.18
2018-04-17T05:33:06.661Z,14.83
2018-04-17T05:35:34.339Z,14.02
2018-04-17T05:38:01.995Z,12.00
2018-04-17T05:40:31.695Z,16.03
2018-04-17T05:43:00.207Z,16.90
2018-04-17T05:45:30.149Z,18.33
2018-04-17T05:47:59.611Z,15.35
2018-04-17T05:50:29.912Z,14.03
2018-04-17T05:52:59.340Z,14.90
2018-04-17T05:55:27.020Z,15.60
2018-04-17T05:57:54.894Z,13.82
2018-04-17T06:00:22.763Z,16.23
2018-04-17T06:02:51.747Z,13.27
2018-04-17T06:05:20.812Z,15.90
2018-04-17T06:07:50.632Z,14.87
2018-04-17T06:10:18.415Z,14.85
2018-04-17T06:12:47.611Z,14.83
2018-04-17T06:15:17.922Z,16.87
2018-04-17T06:17:45.547Z,16.45
2018-04-17T06:20:14.123Z,16.23
2018-04-17T06:22:41.789Z,17.08
2018-04-17T06:25:09.659Z,20.27
2018-04-17T06:27:37.815Z,20.37
2018-04-17T06:30:06.711Z,15.80
2018-04-17T06:32:35.497Z,18.15
2018-04-17T06:35:03.465Z,19.43
2018-04-17T06:37:31.076Z,24.77
2018-04-17T06:39:58.918Z,19.08
2018-04-17T06:42:26.672Z,17.40
2018-04-17T06:44:55.232Z,19.13
2018-04-17T06:47:23.127Z,14.67
2018-04-17T06:49:53.248Z,15.43
2018-04-17T06:52:22.367Z,13.73
2018-04-17T06:54:50.751Z,15.57
2018-04-17T06:57:18.415Z,11.83
2018-04-17T07:02:06.912Z,12.90
2018-04-17T07:04:34.579Z,14.20
2018-04-17T07:07:02.244Z,11.57
2018-04-17T07:09:29.877Z,10.67
2018-04-17T07:11:57.672Z,17.42
2018-04-17T07:14:25.295Z,15.90
2018-04-17T07:16:52.959Z,17.97
2018-04-17T07:19:20.612Z,17.53
2018-04-17T07:21:48.280Z,13.60
2018-04-17T07:24:16.209Z,16.27
2018-04-17T07:26:44.714Z,15.23
2018-04-17T07:29:12.381Z,19.97
2018-04-17T07:31:40.172Z,20.13
2018-04-17T07:34:07.932Z,16.97
2018-04-17T07:36:35.574Z,16.47
2018-04-17T07:39:03.297Z,17.10
2018-04-17T07:41:31.133Z,16.02
2018-04-17T07:43:58.910Z,15.87
2018-04-17T07:46:27.319Z,19.87
2018-04-17T07:49:10.932Z,15.77
2018-04-17T07:51:38.559Z,16.87
2018-04-17T07:54:06.927Z,17.15
2018-04-17T07:56:34.544Z,10.00
2018-04-17T07:59:02.155Z,22.23
2018-04-17T08:01:29.813Z,10.07
2018-04-17T08:03:57.428Z,16.03
2018-04-17T08:06:25.112Z,11.30
2018-04-17T08:08:52.740Z,17.10
2018-04-17T08:11:20.407Z,13.50
2018-04-17T08:13:48.055Z,12.40
2018-04-17T08:16:16.551Z,12.87
2018-04-17T08:18:44.228Z,11.57
2018-04-17T08:21:11.869Z,19.90
2018-04-17T08:23:39.575Z,14.57
2018-04-17T08:26:07.211Z,12.88
2018-04-17T08:28:34.873Z,13.20
2018-04-17T08:31:02.533Z,10.90
2018-04-17T08:33:30.749Z,12.80
2018-04-17T08:35:58.403Z,11.20
2018-04-17T08:38:26.015Z,14.15
2018-04-17T08:40:55.888Z,8.77
2018-04-17T08:43:24.356Z,9.10
2018-04-17T08:45:51.979Z,7.37
2018-04-17T08:48:19.663Z,7.97
2018-04-17T08:50:47.534Z,8.07
2018-04-17T08:53:15.184Z,8.80
2018-04-17T08:55:42.836Z,10.77
2018-04-17T08:58:11.143Z,6.30
2018-04-17T09:00:38.906Z,6.70
2018-04-17T09:03:06.518Z,9.20
2018-04-17T09:05:34.163Z,6.90
2018-04-17T09:08:02.534Z,5.68
2018-04-17T09:10:30.963Z,5.63
2018-04-17T09:12:58.582Z,6.17
2018-04-17T09:15:26.187Z,7.70
2018-04-17T09:17:53.946Z,5.50
2018-04-17T09:20:21.608Z,9.73
2018-04-17T09:22:49.227Z,10.47
2018-04-17T09:25:16.903Z,9.30
2018-04-17T09:27:44.523Z,8.80
2018-04-17T09:30:12.137Z,8.60
2018-04-17T09:32:39.818Z,9.93
2018-04-17T09:35:07.436Z,11.27
2018-04-17T09:37:36.045Z,4.57
2018-04-17T09:40:03.804Z,7.85
2018-04-17T09:42:31.513Z,10.15
2018-04-17T09:44:59.112Z,9.23
2018-04-17T09:47:26.800Z,7.25
2018-04-17T09:49:54.793Z,9.90
2018-04-17T09:52:23.220Z,7.45
2018-04-17T09:54:51.505Z,9.75
2018-04-17T09:57:19.283Z,7.37
2018-04-17T09:59:47.537Z,8.83
2018-04-17T10:02:15.205Z,7.65
2018-04-17T10:04:42.827Z,10.00
2018-04-17T10:07:10.512Z,10.27
2018-04-17T10:09:38.143Z,8.40
2018-04-17T10:12:05.824Z,7.03
2018-04-17T10:14:33.431Z,7.90
2018-04-17T10:17:01.391Z,8.33
2018-04-17T10:19:29.003Z,11.90
2018-04-17T10:21:56.653Z,9.60
2018-04-17T10:24:25.076Z,7.60
2018-04-17T10:26:52.735Z,6.63
2018-04-17T10:29:20.389Z,7.30
2018-04-17T10:31:48.020Z,9.60
2018-04-17T10:34:15.671Z,4.93
2018-04-17T10:36:43.480Z,5.93
2018-04-17T10:39:11.144Z,9.00
2018-04-17T10:41:38.768Z,9.70
2018-04-17T10:44:06.433Z,10.67
2018-04-17T10:46:34.095Z,7.60
2018-04-17T10:49:01.706Z,6.53
2018-04-17T10:51:29.357Z,6.72
2018-04-17T10:53:57.029Z,6.50
2018-04-17T10:56:25.468Z,6.97
2018-04-17T10:58:53.088Z,7.05
2018-04-17T11:01:21.511Z,7.50
2018-04-17T11:03:49.119Z,6.70
2018-04-17T11:06:17.045Z,7.13
2018-04-17T11:08:44.697Z,12.30
2018-04-17T11:11:12.576Z,8.93
2018-04-17T11:13:40.233Z,4.33
2018-04-17T11:16:07.843Z,7.12
2018-04-17T11:18:35.503Z,10.80
2018-04-17T11:21:04.503Z,9.70
2018-04-17T11:23:32.154Z,5.93
2018-04-17T11:25:59.819Z,7.57
2018-04-17T11:28:27.632Z,11.23
2018-04-17T11:30:55.246Z,8.97
2018-04-17T11:33:22.855Z,9.70
2018-04-17T11:35:50.964Z,7.13
2018-04-17T11:40:45.192Z,7.80
2018-04-17T11:43:12.819Z,12.47
2018-04-17T11:45:41.235Z,6.55
2018-04-17T11:48:09.875Z,6.90
2018-04-17T11:50:37.523Z,8.30
2018-04-17T11:53:05.140Z,6.90
2018-04-17T11:55:32.792Z,11.60
2018-04-17T11:58:00.403Z,6.50
2018-04-17T12:00:28.050Z,10.33
2018-04-17T12:02:55.703Z,9.93
2018-04-17T12:05:24.142Z,6.35
2018-04-17T12:07:51.785Z,7.35
2018-04-17T12:10:19.625Z,5.07
2018-04-17T12:12:47.280Z,6.60
2018-04-17T12:15:15.028Z,6.12
2018-04-17T12:17:42.679Z,7.00
2018-04-17T12:20:10.332Z,8.52
2018-04-17T12:22:38.013Z,6.00
2018-04-17T12:25:05.669Z,8.37
2018-04-17T12:27:33.302Z,12.13
2018-04-17T12:30:00.961Z,9.33
2018-04-17T12:32:28.569Z,5.05
2018-04-17T12:34:56.231Z,6.47
2018-04-17T12:37:23.885Z,7.68
2018-04-17T12:39:51.539Z,9.77
2018-04-17T12:42:19.196Z,8.43
2018-04-17T12:44:46.807Z,13.10
2018-04-17T12:47:14.451Z,7.33
2018-04-17T12:49:42.823Z,7.90
2018-04-17T12:52:11.254Z,8.45
2018-04-17T12:54:38.884Z,13.17
2018-04-17T12:57:06.547Z,10.10
2018-04-17T12:59:34.204Z,7.60
2018-04-17T13:02:01.860Z,6.83
2018-04-17T13:04:30.065Z,11.03
2018-04-17T13:06:57.727Z,11.30
2018-04-17T13:09:25.343Z,10.80
2018-04-17T13:11:52.956Z,8.90
2018-04-17T13:14:20.612Z,6.30
2018-04-17T13:16:48.220Z,12.53
2018-04-17T13:19:17.384Z,7.60
2018-04-17T13:21:44.999Z,8.70
2018-04-17T13:24:12.667Z,8.80
2018-04-17T13:26:40.328Z,8.70
2018-04-17T13:29:07.976Z,7.93
2018-04-17T13:31:35.684Z,8.75
2018-04-17T13:34:03.337Z,10.73
2018-04-17T13:36:31.002Z,10.90
2018-04-17T13:38:58.625Z,10.13
2018-04-17T13:41:26.431Z,12.82
2018-04-17T13:43:54.085Z,11.07
2018-04-17T13:46:21.739Z,9.20
2018-04-17T13:48:49.371Z,7.60
2018-04-17T13:51:17.168Z,7.53
2018-04-17T13:53:44.825Z,8.20
2018-04-17T13:56:13.188Z,9.23
2018-04-17T13:58:40.827Z,12.40
2018-04-17T14:01:08.474Z,7.82
2018-04-17T14:03:36.138Z,8.60
2018-04-17T14:06:04.361Z,11.48
2018-04-17T14:08:32.007Z,9.07
2018-04-17T14:10:59.617Z,9.30
2018-04-17T14:13:28.036Z,7.80
2018-04-17T14:15:55.683Z,8.10
2018-04-17T14:18:23.340Z,13.62
2018-04-17T14:20:50.951Z,7.80
2018-04-17T14:23:18.607Z,6.43
2018-04-17T14:25:46.258Z,12.27
2018-04-17T14:28:13.872Z,7.12
2018-04-17T14:30:41.527Z,11.50
2018-04-17T14:33:09.163Z,9.07
2018-04-17T14:35:37.579Z,9.13
2018-04-17T14:38:05.188Z,8.10
2018-04-17T14:40:32.840Z,9.93
2018-04-17T14:43:00.466Z,13.80
2018-04-17T14:45:28.132Z,8.73
2018-04-17T14:47:55.811Z,12.43
2018-04-17T14:50:23.432Z,10.83
2018-04-17T14:52:51.038Z,8.00
2018-04-17T14:55:18.693Z,7.50
2018-04-17T14:57:46.304Z,6.43
2018-04-17T15:00:13.966Z,10.57
2018-04-17T15:02:41.589Z,9.40
2018-04-17T15:05:09.248Z,9.73
2018-04-17T15:07:36.903Z,14.50
2018-04-17T15:10:04.520Z,7.90
2018-04-17T15:12:32.180Z,9.73
2018-04-17T15:14:59.843Z,9.17
2018-04-17T15:17:28.206Z,7.60
2018-04-17T15:19:55.853Z,10.03
2018-04-17T15:22:23.530Z,15.27
2018-04-17T15:24:51.175Z,7.13
2018-04-17T15:27:18.802Z,11.23
2018-04-17T15:29:46.540Z,11.77
2018-04-17T15:32:14.196Z,10.65
2018-04-17T15:34:41.847Z,8.90
2018-04-17T15:37:09.487Z,9.27
2018-04-17T15:39:37.111Z,10.87
2018-04-17T15:42:04.759Z,8.33
2018-04-17T15:44:32.719Z,8.67
2018-04-17T15:47:00.374Z,12.03
2018-04-17T15:49:28.015Z,6.30
2018-04-17T15:51:55.664Z,11.50
2018-04-17T15:54:23.328Z,9.30
2018-04-17T15:56:50.947Z,7.70
2018-04-17T15:59:19.397Z,11.15
2018-04-17T16:01:47.067Z,9.93
2018-04-17T16:04:14.830Z,9.20
2018-04-17T16:06:42.480Z,7.63
2018-04-17T16:09:10.144Z,12.10
2018-04-17T16:11:39.109Z,10.63
2018-04-17T16:14:10.343Z,7.70
2018-04-17T16:16:38.832Z,9.57
2018-04-17T16:19:06.844Z,9.27
2018-04-17T16:21:34.783Z,8.33
2018-04-17T16:24:02.547Z,8.77
2018-04-17T16:26:30.226Z,6.63
2018-04-17T16:28:58.296Z,11.20
2018-04-17T16:31:26.248Z,8.37
2018-04-17T16:33:53.859Z,9.23
2018-04-17T16:36:21.545Z,7.37
2018-04-17T16:38:49.204Z,9.70
2018-04-17T16:41:16.884Z,7.78
2018-04-17T16:43:46.687Z,9.77
2018-04-17T16:46:14.339Z,10.57
2018-04-17T16:48:41.959Z,8.52
2018-04-17T16:51:10.860Z,6.90
2018-04-17T16:53:39.424Z,7.77
2018-04-17T16:56:08.974Z,7.30
2018-04-17T16:58:36.924Z,8.20
2018-04-17T17:01:05.668Z,6.50
2018-04-17T17:03:34.046Z,7.53
2018-04-17T17:06:01.888Z,8.90
2018-04-17T17:08:30.443Z,10.15
2018-04-17T17:10:58.849Z,9.00
2018-04-17T17:13:27.695Z,8.80
2018-04-17T17:15:55.309Z,8.57
2018-04-17T17:18:23.690Z,11.98
2018-04-17T17:20:52.412Z,9.97
2018-04-17T17:23:22.040Z,7.40
2018-04-17T17:25:51.140Z,10.20
2018-04-17T17:28:20.184Z,11.14
2018-04-17T17:30:50.092Z,12.33
2018-04-17T17:33:17.752Z,9.73
2018-04-17T17:35:48.053Z,11.73
2018-04-17T17:38:15.740Z,10.13
2018-04-17T17:40:43.445Z,10.20
2018-04-17T17:43:11.056Z,21.63
2018-04-17T17:45:39.126Z,8.32
2018-04-17T17:48:07.190Z,11.07
2018-04-17T17:50:36.223Z,8.60
2018-04-17T17:53:03.887Z,8.75
2018-04-17T17:55:33.299Z,7.17
2018-04-17T17:58:01.432Z,8.00
2018-04-17T18:00:30.490Z,7.18
2018-04-17T18:03:00.185Z,10.40
2018-04-17T18:05:28.061Z,10.97
2018-04-17T18:07:55.906Z,14.05
2018-04-17T18:10:24.135Z,7.90
2018-04-17T18:12:51.755Z,10.40
2018-04-17T18:15:19.975Z,7.80
2018-04-17T18:17:47.652Z,8.50
2018-04-17T18:20:15.713Z,9.33
2018-04-17T18:22:44.357Z,11.00
2018-04-17T18:25:11.993Z,7.15
2018-04-17T18:27:41.347Z,9.95
2018-04-17T18:30:09.175Z,9.05
2018-04-17T18:32:38.384Z,8.35
2018-04-17T18:35:07.821Z,7.97
2018-04-17T18:37:37.257Z,7.60
2018-04-17T18:40:07.282Z,10.77
2018-04-17T18:42:35.673Z,7.10
2018-04-17T18:45:03.391Z,6.93
2018-04-17T18:47:32.056Z,15.18
2018-04-17T18:50:01.365Z,8.13
2018-04-17T18:52:29.055Z,12.23
2018-04-17T18:54:56.681Z,10.17
2018-04-17T18:57:24.367Z,9.23
2018-04-17T18:59:51.982Z,7.03
2018-04-17T19:02:19.664Z,8.70
2018-04-17T19:04:47.277Z,9.80
2018-04-17T19:07:14.900Z,12.07
2018-04-17T19:09:42.812Z,9.50
2018-04-17T19:12:10.424Z,5.87
2018-04-17T19:14:38.079Z,11.90
2018-04-17T19:17:06.020Z,10.30
2018-04-17T19:19:33.953Z,13.17
2018-04-17T19:22:01.714Z,6.57
2018-04-17T19:24:29.703Z,11.63
2018-04-17T19:26:57.714Z,9.23
2018-04-17T19:29:25.396Z,9.17
2018-04-17T19:31:53.027Z,8.73
2018-04-17T19:34:21.473Z,11.10
2018-04-17T19:36:49.096Z,10.13
2018-04-17T19:39:16.747Z,12.13
2018-04-17T19:41:45.124Z,8.00
2018-04-17T19:44:12.809Z,11.60
2018-04-17T19:46:41.051Z,11.73
2018-04-17T19:49:08.723Z,8.00
2018-04-17T19:51:36.362Z,8.40
2018-04-17T19:54:05.480Z,6.07
2018-04-17T19:56:33.687Z,9.73
2018-04-17T19:59:01.340Z,7.80
2018-04-17T20:01:28.956Z,14.50
2018-04-17T20:03:56.650Z,19.63
2018-04-17T20:06:24.271Z,14.95
2018-04-17T20:08:51.931Z,12.83
2018-04-17T20:11:20.313Z,6.00
2018-04-17T20:13:48.024Z,10.17
2018-04-17T20:16:15.665Z,9.60
2018-04-17T20:18:43.556Z,12.00
2018-04-17T20:21:11.663Z,7.20
2018-04-17T20:23:41.692Z,9.98
2018-04-17T20:26:09.306Z,8.70
2018-04-17T20:28:36.972Z,11.30
2018-04-17T20:31:04.669Z,7.97
2018-04-17T20:33:32.294Z,7.93
2018-04-17T20:36:00.039Z,13.62
2018-04-17T20:38:27.687Z,10.20
2018-04-17T20:40:55.334Z,9.77
2018-04-17T20:43:22.947Z,6.13
2018-04-17T20:45:50.595Z,8.55
2018-04-17T20:48:18.243Z,17.20
2018-04-17T20:50:45.938Z,11.75
2018-04-17T20:53:13.557Z,8.73
2018-04-17T20:55:42.025Z,7.25
2018-04-17T20:58:10.405Z,9.80
2018-04-17T21:00:38.030Z,9.03
2018-04-17T21:03:05.728Z,12.10
2018-04-17T21:05:33.359Z,10.47
2018-04-17T21:08:01.044Z,12.67
2018-04-17T21:10:28.680Z,5.93
2018-04-17T21:12:56.336Z,10.32
2018-04-17T21:15:23.956Z,9.77
2018-04-17T21:17:51.608Z,9.07
2018-04-17T21:20:19.920Z,7.77
2018-04-17T21:22:47.548Z,10.73
2018-04-17T21:25:15.259Z,9.93
2018-04-17T21:27:43.257Z,7.05
2018-04-17T21:30:11.266Z,7.17
2018-04-17T21:32:38.984Z,7.90
2018-04-17T21:35:06.656Z,9.57
2018-04-17T21:37:34.321Z,11.00
2018-04-17T21:40:01.944Z,12.20
2018-04-17T21:42:29.727Z,7.55
2018-04-17T21:44:57.400Z,10.40
2018-04-17T21:47:25.473Z,5.22
2018-04-17T21:49:53.083Z,8.82
2018-04-17T21:52:20.724Z,9.73
2018-04-17T21:54:49.156Z,7.28
2018-04-17T21:57:16.780Z,10.97
2018-04-17T21:59:44.626Z,12.63
2018-04-17T22:02:13.057Z,8.10
2018-04-17T22:04:40.735Z,11.60
2018-04-17T22:07:08.544Z,9.10
2018-04-17T22:09:37.192Z,12.80
2018-04-17T22:12:05.034Z,7.13
2018-04-17T22:14:32.643Z,11.60
2018-04-17T22:17:00.323Z,10.13
2018-04-17T22:19:28.008Z,8.73
2018-04-17T22:21:55.687Z,12.00
2018-04-17T22:24:26.053Z,10.40
2018-04-17T22:26:53.764Z,13.00
2018-04-17T22:29:21.438Z,12.80
2018-04-17T22:31:49.055Z,8.97
2018-04-17T22:34:18.357Z,12.63
2018-04-17T22:36:46.087Z,11.88
2018-04-17T22:39:13.702Z,15.10
2018-04-17T22:41:41.357Z,7.20
2018-04-17T22:44:09.015Z,12.88
2018-04-17T22:46:36.640Z,12.55
2018-04-17T22:49:04.395Z,10.20
2018-04-17T22:51:32.027Z,10.43
2018-04-17T22:54:00.402Z,9.02
2018-04-17T22:56:28.068Z,12.13
2018-04-17T22:58:55.734Z,15.97
2018-04-17T23:01:23.342Z,7.80
2018-04-17T23:03:50.995Z,12.20
2018-04-17T23:06:18.607Z,12.00
2018-04-17T23:08:46.259Z,9.40
2018-04-17T23:11:13.874Z,13.07
2018-04-17T23:13:41.564Z,12.47
2018-04-17T23:16:09.172Z,10.03
2018-04-17T23:18:37.552Z,10.47
2018-04-17T23:21:05.213Z,13.37
2018-04-17T23:23:32.819Z,9.80
2018-04-17T23:26:00.477Z,15.50
2018-04-17T23:28:28.095Z,9.07
2018-04-17T23:30:56.496Z,14.03
2018-04-17T23:33:24.153Z,10.40
2018-04-17T23:35:52.040Z,18.77
2018-04-17T23:38:19.699Z,7.75
2018-04-17T23:40:47.307Z,7.27
2018-04-17T23:43:14.921Z,9.07
2018-04-17T23:45:42.563Z,12.80
2018-04-17T23:48:11.444Z,8.50
2018-04-17T23:50:39.094Z,9.02
2018-04-17T23:53:06.700Z,10.87
2018-04-17T23:55:34.328Z,8.05
2018-04-17T23:58:02.572Z,10.30
